Time;durP1;ratioP1;P1;durP2;ratioP2;P2;SDS_P1;SDS_P2;PMS_P1;PMS_P2;Temp;Humidity;BMP_temperature;BMP_pressure;BME280_temperature;BME280_humidity;BME280_pressure;Samples;Min_cycle;Max_cycle;Signal;HPM_P1;HPM_P2
2022/03/11 00:02:28;;;;;;;10.88;6.22;;;;;;;-7.34;46.43;101082.25;5045410;28;20046;-82
2022/03/11 00:04:54;;;;;;;11.02;6.38;;;;;;;-7.31;46.13;101080.88;5007921;28;20041;-84
2022/03/11 00:07:20;;;;;;;18.52;6.47;;;;;;;-7.37;46.09;101077.84;5047359;28;20049;-83
2022/03/11 00:09:47;;;;;;;13.57;6.20;;;;;;;-7.35;45.80;101080.47;5048062;28;20037;-82
2022/03/11 00:12:13;;;;;;;14.80;5.53;;;;;;;-7.40;46.10;101071.63;5043377;28;20028;-82
2022/03/11 00:14:38;;;;;;;11.43;5.70;;;;;;;-7.34;46.88;101078.09;5036243;28;20037;-82
2022/03/11 00:17:04;;;;;;;9.80;4.82;;;;;;;-7.25;46.48;101066.28;5052778;28;20048;-82
2022/03/11 00:19:30;;;;;;;9.25;4.18;;;;;;;-7.19;45.95;101068.50;5002150;28;20037;-82
2022/03/11 00:21:56;;;;;;;8.25;3.88;;;;;;;-7.13;45.80;101060.56;5046490;28;20033;-82
2022/03/11 00:24:22;;;;;;;8.70;4.43;;;;;;;-7.16;45.88;101058.66;5044942;28;20041;-82
2022/03/11 00:26:47;;;;;;;9.70;4.05;;;;;;;-7.12;45.35;101059.81;5035833;28;20055;-82
2022/03/11 00:29:14;;;;;;;6.88;3.58;;;;;;;-7.20;45.66;101060.03;5019649;28;20554;-82
2022/03/11 00:31:39;;;;;;;10.27;3.65;;;;;;;-7.20;46.13;101047.41;5033868;28;20791;-83
2022/03/11 00:34:05;;;;;;;8.45;4.00;;;;;;;-7.13;45.76;101050.50;5019233;28;20049;-84
2022/03/11 00:36:30;;;;;;;9.32;4.13;;;;;;;-7.13;46.34;101047.97;5016390;28;20044;-83
2022/03/11 00:38:56;;;;;;;7.78;3.30;;;;;;;-7.11;45.61;101046.47;5024575;28;20032;-84
2022/03/11 00:41:22;;;;;;;9.60;3.70;;;;;;;-7.09;45.76;101057.59;5035423;28;20040;-83
2022/03/11 00:43:48;;;;;;;;;;;;;;;-7.08;45.06;101059.34;5019925;28;20048;-83
2022/03/11 00:46:13;;;;;;;10.98;4.50;;;;;;;-7.12;46.40;101055.66;5038921;28;19913;-83
2022/03/11 00:48:39;;;;;;;6.72;3.47;;;;;;;-7.14;46.49;101061.34;5032835;28;20044;-83
2022/03/11 00:51:05;;;;;;;8.20;3.42;;;;;;;-7.10;45.95;101063.34;5019479;28;20404;-84
2022/03/11 00:53:30;;;;;;;5.80;3.30;;;;;;;-7.11;45.57;101062.47;5052303;28;20411;-83
2022/03/11 00:55:56;;;;;;;9.90;4.03;;;;;;;-7.11;45.87;101062.47;5035429;28;20550;-84
2022/03/11 00:58:22;;;;;;;9.27;4.30;;;;;;;-7.08;46.61;101061.88;5020835;28;20501;-83
2022/03/11 01:00:47;;;;;;;8.77;4.38;;;;;;;-6.99;45.66;101073.66;5002682;28;20049;-84
2022/03/11 01:03:13;;;;;;;9.45;3.78;;;;;;;-7.04;45.90;101062.28;5053302;28;20041;-84
2022/03/11 01:05:39;;;;;;;8.07;4.20;;;;;;;-7.00;46.08;101061.78;5035332;28;20483;-83
2022/03/11 01:08:05;;;;;;;7.22;4.10;;;;;;;-7.04;46.30;101057.22;5037501;28;20063;-83
2022/03/11 01:10:30;;;;;;;7.97;3.95;;;;;;;-7.05;46.58;101062.16;5035316;28;20499;-84
2022/03/11 01:12:56;;;;;;;8.23;4.78;;;;;;;-7.11;46.69;101059.94;5051669;28;20071;-82
2022/03/11 01:15:22;;;;;;;7.97;4.20;;;;;;;-7.16;46.96;101063.69;5010531;28;20033;-81
2022/03/11 01:17:48;;;;;;;6.43;3.92;;;;;;;-7.13;45.90;101068.16;5009144;28;20423;-81
2022/03/11 01:20:14;;;;;;;8.48;4.40;;;;;;;-7.07;46.43;101062.00;5017875;28;20396;-81
2022/03/11 01:22:39;;;;;;;;;;;;;;;-7.02;46.16;101062.41;5017500;28;20041;-81
2022/03/11 01:25:05;;;;;;;9.63;4.00;;;;;;;-7.05;46.04;101057.09;5051781;28;20356;-82
2022/03/11 01:27:31;;;;;;;9.15;3.72;;;;;;;-7.02;45.73;101067.44;5033373;28;20076;-82
2022/03/11 01:29:57;;;;;;;6.35;3.70;;;;;;;-7.07;45.91;101058.59;5051476;28;20056;-81
2022/03/11 01:32:23;;;;;;;7.43;4.00;;;;;;;-7.18;45.52;101072.78;5038378;28;20055;-83
2022/03/11 01:34:48;;;;;;;8.68;4.40;;;;;;;-7.23;45.43;101072.38;5007690;28;20124;-82
2022/03/11 01:37:14;;;;;;;7.68;3.70;;;;;;;-7.25;45.69;101067.94;5011466;28;20575;-82
2022/03/11 01:39:40;;;;;;;11.13;4.45;;;;;;;-7.28;46.16;101068.56;5029120;28;20037;-82
2022/03/11 01:42:07;;;;;;;10.18;4.70;;;;;;;-7.25;45.69;101068.81;5038638;28;20120;-81
2022/03/11 01:44:33;;;;;;;10.23;4.22;;;;;;;-7.27;46.34;101074.50;5022322;28;20060;-82
2022/03/11 01:46:59;;;;;;;6.03;3.63;;;;;;;-7.26;45.67;101081.28;5024703;28;20068;-82
2022/03/11 01:49:25;;;;;;;8.60;4.25;;;;;;;-7.26;46.30;101077.13;5015433;28;20034;-81
2022/03/11 01:51:50;;;;;;;8.30;4.10;;;;;;;-7.23;46.07;101077.41;5014494;28;20045;-81
2022/03/11 01:54:16;;;;;;;10.40;4.18;;;;;;;-7.26;46.26;101081.28;4998475;28;20172;-81
2022/03/11 01:56:42;;;;;;;13.73;4.22;;;;;;;-7.25;46.02;101081.41;5035071;28;20714;-81
2022/03/11 01:59:08;;;;;;;9.63;3.90;;;;;;;-7.29;45.96;101081.91;5035265;28;20045;-82
2022/03/11 02:01:34;;;;;;;11.63;4.30;;;;;;;-7.40;46.95;101081.69;5034663;28;20791;-82
2022/03/11 02:04:00;;;;;;;14.02;4.65;;;;;;;-7.47;47.34;101077.72;5035307;28;20053;-82
2022/03/11 02:06:26;;;;;;;11.75;4.65;;;;;;;-7.49;46.99;101081.75;4985867;28;20410;-81
2022/03/11 02:08:52;;;;;;;11.38;4.43;;;;;;;-7.54;46.57;101080.47;5002189;28;20033;-81
2022/03/11 02:11:19;;;;;;;;;;;;;;;-7.55;46.51;101082.09;5002950;28;20120;-82
2022/03/11 02:13:54;;;;;;;10.63;4.40;;;;;;;-7.58;46.48;101085.97;5035434;28;19975;-82
2022/03/11 02:16:22;;;;;;;10.27;4.72;;;;;;;-7.57;46.77;101082.69;5019505;28;20908;-84
2022/03/11 02:18:48;;;;;;;6.88;4.10;;;;;;;-7.59;46.61;101079.16;5002516;28;20033;-82
2022/03/11 02:21:14;;;;;;;9.98;4.72;;;;;;;-7.65;47.01;101084.56;5035399;28;20044;-83
2022/03/11 02:23:53;;;;;;;9.25;4.72;;;;;;;-7.68;47.18;101085.16;5002430;28;20072;-83
2022/03/11 02:26:20;;;;;;;9.85;4.40;;;;;;;-7.66;47.04;101087.78;5018634;28;20037;-83
2022/03/11 02:28:47;;;;;;;9.45;4.70;;;;;;;-7.69;47.26;101088.41;5034784;28;20510;-82
2022/03/11 02:31:12;;;;;;;11.00;5.40;;;;;;;-7.64;46.68;101081.28;5018348;28;20029;-81
2022/03/11 02:33:38;;;;;;;9.38;4.70;;;;;;;-7.61;47.55;101085.69;5001392;28;20179;-81
2022/03/11 02:36:04;;;;;;;7.88;4.70;;;;;;;-7.65;47.63;101089.59;5017726;28;20069;-81
2022/03/11 02:38:30;;;;;;;;;;;;;;;-7.67;47.63;101076.84;5017028;28;20045;-81
2022/03/11 02:40:56;;;;;;;10.57;4.55;;;;;;;-7.68;47.83;101082.63;5067050;28;19923;-81
2022/03/11 02:43:22;;;;;;;7.90;4.15;;;;;;;-7.68;47.12;101070.03;5019811;28;20056;-82
2022/03/11 02:45:48;;;;;;;12.07;4.50;;;;;;;-7.69;47.10;101077.47;5021370;28;20094;-81
2022/03/11 02:48:13;;;;;;;8.40;4.18;;;;;;;-7.68;47.45;101072.53;5037221;28;20033;-81
2022/03/11 02:50:39;;;;;;;8.63;4.20;;;;;;;-7.62;47.22;101074.72;5034231;28;20046;-81
2022/03/11 02:53:05;;;;;;;12.95;4.03;;;;;;;-7.64;47.70;101065.28;5005627;28;20029;-81
2022/03/11 02:55:31;;;;;;;11.68;4.43;;;;;;;-7.67;47.38;101071.78;5047155;28;20559;-81
2022/03/11 02:57:56;;;;;;;9.15;4.30;;;;;;;-7.78;47.89;101076.63;5025310;28;20119;-81
2022/03/11 03:00:22;;;;;;;9.73;4.53;;;;;;;-7.81;47.63;101076.34;5039715;28;20049;-81
2022/03/11 03:02:48;;;;;;;10.52;3.88;;;;;;;-7.81;48.42;101072.19;5021044;28;20100;-82
2022/03/11 03:05:14;;;;;;;11.57;4.38;;;;;;;-7.87;48.23;101059.03;5036890;28;20049;-83
2022/03/11 03:07:40;;;;;;;11.95;4.10;;;;;;;-7.79;48.12;101065.66;5035601;28;20240;-82
2022/03/11 03:10:06;;;;;;;12.20;4.70;;;;;;;-7.72;48.12;101073.00;5020978;28;20041;-82
2022/03/11 03:12:32;;;;;;;8.57;4.22;;;;;;;-7.70;47.77;101069.03;5020607;28;20091;-81
2022/03/11 03:14:58;;;;;;;9.35;4.22;;;;;;;-7.71;47.57;101067.22;5037236;28;20065;-81
2022/03/11 03:17:28;;;;;;;17.13;4.50;;;;;;;-7.70;47.83;101074.06;5037545;28;20510;-82
2022/03/11 03:19:54;;;;;;;;;;;;;;;-7.72;47.70;101075.53;5055083;28;20044;-82
2022/03/11 03:22:19;;;;;;;9.35;4.05;;;;;;;-7.78;47.68;101069.94;5044087;28;19916;-81
2022/03/11 03:24:45;;;;;;;15.32;4.63;;;;;;;-7.82;47.79;101061.97;5013536;28;20501;-81
2022/03/11 03:27:11;;;;;;;9.43;4.18;;;;;;;-7.80;47.70;101058.81;5018548;28;20037;-82
2022/03/11 03:29:37;;;;;;;11.98;4.15;;;;;;;-7.77;48.30;101059.13;5008235;28;20431;-80
2022/03/11 03:32:03;;;;;;;10.35;4.15;;;;;;;-7.79;48.38;101063.16;5031997;28;20037;-82
2022/03/11 03:34:30;;;;;;;15.45;4.55;;;;;;;-7.77;48.15;101066.69;5016364;28;20044;-80
2022/03/11 03:36:56;;;;;;;14.52;4.50;;;;;;;-7.77;48.29;101068.31;5032745;28;20029;-79
2022/03/11 03:39:22;;;;;;;14.60;4.53;;;;;;;-7.82;48.69;101065.38;5028528;28;20049;-81
2022/03/11 03:41:52;;;;;;;16.52;6.18;;;;;;;-7.84;48.64;101056.78;5020058;28;20473;-84
2022/03/11 03:44:18;;;;;;;15.50;5.03;;;;;;;-7.87;48.80;101059.03;5043659;28;20350;-82
2022/03/11 03:46:44;;;;;;;17.52;4.93;;;;;;;-7.89;48.77;101058.00;5031880;28;20055;-81
2022/03/11 03:49:10;;;;;;;17.40;5.35;;;;;;;-7.89;48.92;101060.50;5028173;28;20046;-80
2022/03/11 03:51:38;;;;;;;18.85;4.70;;;;;;;-7.90;49.22;101056.22;5020078;28;20029;-84
2022/03/11 03:54:07;;;;;;;17.92;4.78;;;;;;;-7.94;48.92;101060.09;5020462;28;20067;-83
2022/03/11 03:56:35;;;;;;;14.43;5.05;;;;;;;-7.94;49.36;101060.09;5035305;28;20033;-82
2022/03/11 03:59:04;;;;;;;16.08;5.35;;;;;;;-8.00;49.11;101058.66;4998844;28;20549;-83
2022/03/11 04:01:34;;;;;;;22.45;5.65;;;;;;;-8.07;49.49;101056.31;5044120;28;20053;-82
2022/03/11 04:04:00;;;;;;;14.18;4.72;;;;;;;-8.11;49.24;101049.22;5024612;28;20555;-83
2022/03/11 04:06:27;;;;;;;18.42;6.03;;;;;;;-8.14;50.10;101049.84;4997636;28;20125;-82
2022/03/11 04:08:56;;;;;;;20.52;5.65;;;;;;;-8.18;49.37;101053.72;5008735;28;20042;-82
2022/03/11 04:11:23;;;;;;;21.98;5.05;;;;;;;-8.24;50.18;101050.63;5014196;28;20037;-83
2022/03/11 04:13:50;;;;;;;23.17;8.90;;;;;;;-8.23;50.04;101054.03;5014776;28;20097;-83
2022/03/11 04:16:16;;;;;;;41.72;6.50;;;;;;;-8.29;50.38;101054.38;5014155;28;20546;-83
2022/03/11 04:18:42;;;;;;;29.00;5.97;;;;;;;-8.26;50.20;101049.59;5032033;28;20472;-84
2022/03/11 04:21:10;;;;;;;24.02;6.00;;;;;;;-8.25;50.00;101056.38;5015309;28;20052;-82
2022/03/11 04:23:35;;;;;;;32.80;7.53;;;;;;;-8.24;50.54;101054.78;5011385;28;20042;-83
2022/03/11 04:26:02;;;;;;;22.45;5.20;;;;;;;-8.16;50.11;101051.31;5006373;28;20555;-82
2022/03/11 04:28:27;;;;;;;20.10;5.32;;;;;;;-8.15;49.70;101052.19;5031064;28;20510;-83
2022/03/11 04:30:53;;;;;;;21.40;5.13;;;;;;;-8.24;49.51;101053.16;5015142;28;20033;-84
2022/03/11 04:33:19;;;;;;;19.30;5.30;;;;;;;-8.17;49.75;101049.56;5030779;28;20044;-83
2022/03/11 04:35:45;;;;;;;17.92;5.88;;;;;;;-8.23;49.31;101049.88;5033738;28;20060;-83
2022/03/11 04:38:10;;;;;;;15.27;5.82;;;;;;;-8.42;49.69;101056.53;5018918;28;20052;-83
2022/03/11 04:40:36;;;;;;;16.02;5.68;;;;;;;-8.50;49.98;101047.38;5049714;28;20059;-83
2022/03/11 04:43:02;;;;;;;25.67;6.47;;;;;;;-8.50;49.64;101052.41;5049405;28;20044;-83
2022/03/11 04:45:28;;;;;;;20.90;5.55;;;;;;;-8.56;50.44;101054.34;5017520;28;20037;-83
2022/03/11 04:47:54;;;;;;;12.55;4.95;;;;;;;-8.52;49.58;101056.38;5037519;28;20045;-82
2022/03/11 04:50:19;;;;;;;35.10;9.82;;;;;;;-8.51;50.19;101048.13;5008095;28;20424;-83
2022/03/11 04:52:45;;;;;;;34.88;10.50;;;;;;;-8.45;50.32;101049.56;5015470;28;20053;-84
2022/03/11 04:55:11;;;;;;;31.67;6.47;;;;;;;-8.42;49.38;101048.97;5018696;28;20052;-84
2022/03/11 04:57:40;;;;;;;39.08;8.18;;;;;;;-8.40;50.22;101055.00;5010954;28;20519;-83
2022/03/11 05:00:06;;;;;;;51.30;6.85;;;;;;;-8.34;50.29;101050.50;5025166;28;20036;-83
2022/03/11 05:02:32;;;;;;;40.88;6.50;;;;;;;-8.31;51.17;101053.31;5010064;28;20057;-83
2022/03/11 05:05:03;;;;;;;34.00;6.50;;;;;;;-8.31;49.85;101055.84;5003115;28;20076;-83
2022/03/11 05:07:29;;;;;;;20.20;7.28;;;;;;;-8.19;49.36;101056.97;5016586;28;20131;-83
2022/03/11 05:09:54;;;;;;;26.58;5.65;;;;;;;-8.10;48.84;101056.06;5033555;28;20037;-82
2022/03/11 05:12:20;;;;;;;21.35;5.18;;;;;;;-8.06;48.46;101056.47;5050382;28;20044;-83
2022/03/11 05:14:48;;;;;;;13.93;4.40;;;;;;;-7.84;48.74;101056.78;5033726;28;20037;-83
2022/03/11 05:17:16;;;;;;;17.90;5.45;;;;;;;-7.94;47.66;101059.22;5050100;28;20385;-83
2022/03/11 05:19:43;;;;;;;21.13;5.10;;;;;;;-7.97;48.25;101053.88;5034371;28;20487;-82
2022/03/11 05:22:09;;;;;;;20.05;7.35;;;;;;;-7.99;47.66;101047.84;5016711;28;20233;-83
2022/03/11 05:24:35;;;;;;;16.27;5.85;;;;;;;-8.04;48.08;101056.59;5049313;28;20403;-83
2022/03/11 05:27:02;;;;;;;23.70;6.00;;;;;;;-8.10;48.45;101048.50;5032870;28;20054;-83
2022/03/11 05:29:29;;;;;;;42.15;6.93;;;;;;;-8.10;48.51;101056.06;5014448;28;20044;-85
2022/03/11 05:31:55;;;;;;;21.67;5.50;;;;;;;-8.04;48.16;101056.59;5010703;28;20394;-82
2022/03/11 05:34:20;;;;;;;25.13;6.45;;;;;;;-7.96;48.20;101056.56;5008564;28;20091;-82
2022/03/11 05:36:46;;;;;;;19.58;6.35;;;;;;;-7.94;49.16;101064.25;5027328;28;20045;-83
2022/03/11 06:00:13;;;;;;;31.45;9.50;;;;;;;-7.70;47.58;101051.38;5050488;28;20417;-85
2022/03/11 06:02:39;;;;;;;20.55;6.55;;;;;;;-7.69;47.20;101052.25;5044404;28;20409;-84
2022/03/11 06:05:06;;;;;;;16.23;5.80;;;;;;;-7.67;47.61;101051.63;5038958;28;20495;-83
2022/03/11 06:07:31;;;;;;;14.70;5.32;;;;;;;-7.69;46.45;101043.06;5016474;28;20045;-82
2022/03/11 06:09:57;;;;;;;20.63;6.32;;;;;;;-7.68;47.47;101047.34;5042900;28;20049;-83
2022/03/11 06:12:23;;;;;;;32.75;6.82;;;;;;;-7.55;47.42;101043.41;5020041;28;20042;-83
2022/03/11 06:14:49;;;;;;;25.60;5.97;;;;;;;-7.44;47.07;101040.22;5047976;28;20048;-84
2022/03/11 06:17:15;;;;;;;22.20;6.72;;;;;;;-7.32;46.29;101036.25;5017710;28;20043;-84
2022/03/11 06:19:41;;;;;;;17.25;6.65;;;;;;;-7.30;46.38;101039.78;5019475;28;20047;-83
2022/03/11 06:22:06;;;;;;;;;;;;;;;-7.27;46.20;101040.06;5020170;28;20149;-82
2022/03/11 06:24:35;;;;;;;25.77;7.05;;;;;;;-7.28;45.30;101033.28;5052449;28;20007;-81
2022/03/11 06:27:01;;;;;;;23.35;5.32;;;;;;;-7.21;46.26;101030.50;5028725;28;20115;-82
2022/03/11 06:29:27;;;;;;;17.67;6.38;;;;;;;-7.11;45.92;101023.75;5016606;28;20073;-83
2022/03/11 06:31:52;;;;;;;24.58;5.82;;;;;;;-7.01;46.41;101028.84;5035466;28;20115;-83
2022/03/11 06:34:18;;;;;;;16.75;5.75;;;;;;;-6.94;45.53;101032.03;5045294;28;20044;-83
2022/03/11 06:36:45;;;;;;;19.48;6.00;;;;;;;-6.92;44.77;101035.59;4999931;28;20037;-82
2022/03/11 06:39:13;;;;;;;13.70;4.93;;;;;;;-6.93;45.55;101027.88;5036414;28;20511;-83
2022/03/11 06:41:41;;;;;;;23.27;4.97;;;;;;;-6.85;44.03;101034.47;5053137;28;20029;-84
2022/03/11 06:44:06;;;;;;;16.65;5.00;;;;;;;-6.73;45.39;101033.03;5053077;28;20033;-83
2022/03/11 06:46:32;;;;;;;33.75;6.70;;;;;;;-6.69;44.65;101032.53;5036850;28;20043;-84
2022/03/11 06:48:58;;;;;;;21.13;6.13;;;;;;;-6.56;45.16;101028.53;5052783;28;20041;-83
2022/03/11 06:51:24;;;;;;;22.23;5.13;;;;;;;-6.54;44.31;101030.44;5031967;28;20041;-83
2022/03/11 06:53:49;;;;;;;21.85;6.35;;;;;;;-6.55;44.24;101021.09;5007868;28;20075;-83
2022/03/11 06:56:15;;;;;;;16.88;6.25;;;;;;;-6.46;44.14;101018.44;5019688;28;20041;-84
2022/03/11 06:58:41;;;;;;;18.48;5.88;;;;;;;-6.34;44.19;101019.50;5018741;28;20083;-83
2022/03/11 07:01:06;;;;;;;19.83;5.88;;;;;;;-6.26;43.80;101008.41;5036124;28;20053;-84
2022/03/11 07:03:32;;;;;;;26.83;5.55;;;;;;;-6.20;43.70;101015.59;5019490;28;20056;-83
2022/03/11 07:05:58;;;;;;;13.10;4.53;;;;;;;-6.24;42.76;101011.94;5042815;28;20128;-83
2022/03/11 07:08:24;;;;;;;;;;;;;;;-6.16;42.27;101010.94;5017881;28;20042;-82
2022/03/11 07:10:51;;;;;;;19.40;5.38;;;;;;;-6.03;42.28;101012.84;5052425;28;20019;-83
2022/03/11 07:13:16;;;;;;;10.65;4.03;;;;;;;-5.96;42.77;100999.94;5036536;28;20036;-85
2022/03/11 07:15:43;;;;;;;14.38;4.75;;;;;;;-5.92;42.45;101006.16;5053331;28;20036;-83
2022/03/11 07:18:09;;;;;;;15.90;4.40;;;;;;;-5.93;41.85;101005.28;5053919;28;20072;-83
2022/03/11 07:20:34;;;;;;;16.88;4.20;;;;;;;-5.91;42.52;101002.81;5052104;28;20067;-82
2022/03/11 07:23:00;;;;;;;21.48;4.47;;;;;;;-5.80;42.74;101002.09;5028777;28;20042;-84
2022/03/11 07:25:28;;;;;;;14.63;4.00;;;;;;;-5.70;42.42;100986.03;5014941;28;20037;-83
2022/03/11 07:27:54;;;;;;;13.00;4.40;;;;;;;-5.59;41.83;100981.81;5052221;28;20445;-84
2022/03/11 07:30:19;;;;;;;11.40;3.40;;;;;;;-5.56;41.76;100972.84;5035398;28;20443;-83
2022/03/11 07:32:46;;;;;;;47.13;24.23;;;;;;;-5.46;41.51;100980.41;5019301;28;20068;-83
2022/03/11 07:35:12;;;;;;;19.45;5.70;;;;;;;-5.32;41.93;100973.94;5035508;28;20021;-84
2022/03/11 07:37:40;;;;;;;11.55;4.50;;;;;;;-5.32;42.20;100968.88;5003538;28;20046;-83
2022/03/11 07:40:07;;;;;;;18.35;7.28;;;;;;;-5.28;41.34;100962.41;5019289;28;20404;-82
2022/03/11 07:42:33;;;;;;;20.13;4.70;;;;;;;-5.21;42.11;100964.69;5035268;28;20136;-82
2022/03/11 07:45:00;;;;;;;22.50;5.53;;;;;;;-5.23;41.97;100969.59;5019071;28;20033;-84
2022/03/11 07:47:26;;;;;;;;;;;;;;;-5.23;42.86;100969.59;5012250;28;20423;-82
2022/03/11 07:49:51;;;;;;;15.65;5.88;;;;;;;-5.15;42.85;100973.63;5025356;28;20003;-83
2022/03/11 07:52:17;;;;;;;18.33;4.50;;;;;;;-5.04;41.85;100960.94;5034504;28;20041;-83
2022/03/11 07:54:43;;;;;;;13.50;4.35;;;;;;;-4.95;42.17;100954.06;5034394;28;20107;-83
2022/03/11 07:57:09;;;;;;;;;;;;;;;-4.88;41.95;100963.91;5035205;28;20559;-84
2022/03/11 07:59:37;;;;;;;13.88;4.32;;;;;;;-4.76;41.60;100953.88;5034573;28;19913;-82
2022/03/11 08:02:06;;;;;;;12.30;3.85;;;;;;;-4.80;41.25;100960.34;5031159;28;20148;-84
2022/03/11 08:04:32;;;;;;;13.75;4.93;;;;;;;-4.74;41.25;100957.38;5000493;28;20052;-83
2022/03/11 08:07:06;;;;;;;;;;;;;;;-4.75;41.09;100941.31;5027657;28;20040;-83
2022/03/11 08:09:35;;;;;;;16.70;4.18;;;;;;;-4.72;41.63;100946.63;5022649;28;19969;-85
2022/03/11 08:12:01;;;;;;;16.20;4.32;;;;;;;-4.68;41.02;100948.59;5052621;28;20500;-83
2022/03/11 08:14:27;;;;;;;16.88;3.88;;;;;;;-4.64;40.34;100940.47;5049676;28;20036;-83
2022/03/11 08:16:54;;;;;;;9.00;3.60;;;;;;;-4.71;40.42;100934.84;5039502;28;20119;-84
2022/03/11 08:19:22;;;;;;;13.00;3.55;;;;;;;-4.62;40.81;100938.09;5017823;28;20154;-83
2022/03/11 08:21:48;;;;;;;14.20;4.40;;;;;;;-4.52;40.28;100932.06;5027623;28;20116;-82
2022/03/11 08:24:14;;;;;;;8.60;2.42;;;;;;;-4.66;39.61;100931.91;5044154;28;20381;-83
2022/03/11 08:26:40;;;;;;;4.28;2.33;;;;;;;-4.75;39.34;100931.19;5018180;28;20048;-84
2022/03/11 08:29:06;;;;;;;7.80;2.70;;;;;;;-4.79;39.84;100929.19;5050992;28;20037;-84
2022/03/11 08:31:32;;;;;;;6.53;2.60;;;;;;;-4.79;39.86;100931.72;5015064;28;20064;-84
2022/03/11 08:33:58;;;;;;;7.47;2.60;;;;;;;-4.78;40.09;100913.22;4997740;28;20645;-83
2022/03/11 08:36:24;;;;;;;11.30;3.80;;;;;;;-4.60;40.17;100921.34;5044695;28;20044;-84
2022/03/11 08:38:49;;;;;;;8.35;2.50;;;;;;;-4.48;39.98;100927.34;4983426;28;20042;-82
2022/03/11 08:41:16;;;;;;;7.57;3.17;;;;;;;-4.44;40.17;100913.28;5006776;28;20100;-82
2022/03/11 08:43:43;;;;;;;9.45;2.97;;;;;;;-4.42;40.10;100906.66;5001836;28;20091;-83
2022/03/11 08:46:09;;;;;;;8.77;3.08;;;;;;;-4.30;39.37;100906.72;5008793;28;20044;-83
2022/03/11 08:48:35;;;;;;;7.55;3.10;;;;;;;-4.24;39.89;100907.16;5028070;28;20071;-83
2022/03/11 08:51:01;;;;;;;;;;;;;;;-4.18;39.96;100911.03;5017483;28;20025;-81
2022/03/11 08:53:27;;;;;;;10.10;2.97;;;;;;;-4.12;39.72;100903.00;5033762;28;19923;-83
2022/03/11 08:55:52;;;;;;;9.05;2.80;;;;;;;-4.23;39.82;100904.72;5019775;28;20032;-83
2022/03/11 08:58:19;;;;;;;11.43;2.85;;;;;;;-4.22;39.91;100898.88;5034411;28;20056;-82
2022/03/11 09:00:44;;;;;;;7.70;3.10;;;;;;;-4.19;39.42;100895.72;5029185;28;20563;-83
2022/03/11 09:03:10;;;;;;;19.85;8.73;;;;;;;-4.02;39.49;100905.44;5025931;28;20048;-83
2022/03/11 09:05:39;;;;;;;9.98;3.30;;;;;;;-3.91;38.72;100904.56;5025892;28;20041;-83
2022/03/11 09:08:07;;;;;;;11.10;3.55;;;;;;;-3.83;39.40;100889.94;5036102;28;20099;-83
2022/03/11 09:10:33;;;;;;;11.00;3.13;;;;;;;-3.79;39.08;100896.13;5019535;28;20072;-84
2022/03/11 09:12:59;;;;;;;7.70;3.30;;;;;;;-3.70;38.58;100884.09;5041826;28;20040;-83
2022/03/11 09:15:25;;;;;;;6.82;3.20;;;;;;;-3.73;38.60;100887.28;5033136;28;20079;-87
2022/03/11 09:17:51;;;;;;;7.28;2.63;;;;;;;-3.58;38.19;100893.44;5033361;28;20111;-83
2022/03/11 09:20:16;;;;;;;9.02;3.13;;;;;;;-3.47;38.29;100893.34;5049741;28;20041;-82
2022/03/11 09:22:42;;;;;;;7.68;2.30;;;;;;;-3.64;37.86;100887.94;5016863;28;20488;-83
2022/03/11 09:25:09;;;;;;;7.10;3.13;;;;;;;-3.60;38.26;100895.00;5050371;28;20047;-83
2022/03/11 09:27:35;;;;;;;8.32;2.83;;;;;;;-3.48;37.38;100894.09;5009025;28;20041;-85
2022/03/11 09:30:00;;;;;;;7.95;2.25;;;;;;;-3.24;37.63;100880.63;5021940;28;20044;-83
2022/03/11 09:32:27;;;;;;;6.30;2.72;;;;;;;-2.96;36.95;100882.56;5044130;28;20128;-83
2022/03/11 09:34:53;;;;;;;5.68;2.38;;;;;;;-2.71;37.22;100872.41;5006803;28;20051;-82
2022/03/11 09:37:18;;;;;;;;;;;;;;;-2.60;35.96;100867.28;5004569;28;20056;-82
2022/03/11 09:39:44;;;;;;;4.53;2.30;;;;;;;-2.26;36.03;100861.03;5042548;28;20367;-84
2022/03/11 09:42:10;;;;;;;5.63;2.05;;;;;;;-2.14;35.11;100859.31;5017004;28;20041;-83
2022/03/11 09:44:35;;;;;;;9.50;2.53;;;;;;;-1.69;35.10;100863.06;5033145;28;20115;-85
2022/03/11 09:47:01;;;;;;;6.78;2.45;;;;;;;-1.15;33.23;100862.19;5019737;28;20509;-83
2022/03/11 09:49:29;;;;;;;9.52;3.28;;;;;;;-0.53;32.53;100855.81;5033195;28;20071;-83
2022/03/11 09:51:55;;;;;;;9.65;3.10;;;;;;;0.42;31.25;100850.19;5018715;28;20041;-83
2022/03/11 09:54:20;;;;;;;8.90;2.97;;;;;;;1.27;29.90;100847.13;5036818;28;20052;-84
2022/03/11 09:56:46;;;;;;;8.68;3.15;;;;;;;2.28;28.25;100838.50;5036919;28;20060;-84
2022/03/11 09:59:12;;;;;;;8.02;2.90;;;;;;;3.00;27.08;100835.03;5053973;28;20487;-84
2022/03/11 10:01:42;;;;;;;6.88;2.17;;;;;;;3.78;25.74;100835.88;5036898;28;20044;-84
2022/03/11 10:04:08;;;;;;;10.82;2.50;;;;;;;4.33;25.24;100829.56;5030479;28;20102;-85
2022/03/11 10:06:39;;;;;;;7.55;2.10;;;;;;;4.91;24.94;100818.94;5045837;28;20041;-83
2022/03/11 10:09:05;;;;;;;8.35;2.33;;;;;;;5.16;23.91;100819.84;5020721;28;20040;-84
2022/03/11 10:11:31;;;;;;;5.45;2.22;;;;;;;5.11;23.53;100822.22;5026200;28;20044;-83
2022/03/11 10:14:06;;;;;;;;;;;;;;;5.35;23.68;100814.50;5051291;28;20051;-84
2022/03/11 10:16:32;;;;;;;7.45;2.60;;;;;;;5.70;23.77;100817.44;5044756;28;19917;-86
2022/03/11 10:19:05;;;;;;;5.07;1.90;;;;;;;6.47;22.66;100803.69;5032916;28;20123;-85
2022/03/11 10:21:38;;;;;;;5.75;2.03;;;;;;;6.96;22.08;100805.13;5002094;28;20045;-85
2022/03/11 10:24:05;;;;;;;4.55;2.42;;;;;;;6.63;22.38;100800.72;5026617;28;20479;-86
2022/03/11 10:26:43;;;;;;;4.30;2.20;;;;;;;6.83;21.81;100800.47;5046970;28;20048;-85
2022/03/11 10:29:12;;;;;;;3.45;2.08;;;;;;;6.60;21.46;100792.91;5015360;28;20048;-84
2022/03/11 10:31:45;;;;;;;5.03;1.80;;;;;;;6.84;22.07;100781.56;5037554;28;20548;-84
2022/03/11 10:34:24;;;;;;;7.30;2.08;;;;;;;7.06;21.62;100783.94;5022162;28;20037;-84
2022/03/11 10:37:03;;;;;;;7.03;2.45;;;;;;;7.67;21.44;100769.19;5025303;28;20052;-85
2022/03/11 10:39:33;;;;;;;6.38;2.15;;;;;;;7.27;20.72;100762.97;5024103;28;20064;-85
2022/03/11 10:42:13;;;;;;;8.57;2.60;;;;;;;7.52;21.11;100756.78;5020587;28;20174;-85
2022/03/11 10:44:59;;;;;;;6.18;2.50;;;;;;;7.54;20.67;100756.81;5053136;28;20049;-85
2022/03/11 10:47:35;;;;;;;6.72;2.22;;;;;;;6.68;20.47;100756.16;5026690;28;20090;-84
2022/03/11 10:50:12;;;;;;;4.05;1.83;;;;;;;6.40;20.62;100750.19;5035099;28;20068;-85
2022/03/11 10:52:41;;;;;;;;;;;;;;;6.41;21.68;100744.19;5008922;28;20098;-84
2022/03/11 10:55:17;;;;;;;10.32;2.30;;;;;;;6.38;20.86;100744.13;5039016;28;19913;-84
2022/03/11 10:57:43;;;;;;;9.85;2.20;;;;;;;6.75;21.56;100735.75;5039710;28;20063;-84
2022/03/11 11:00:29;;;;;;;4.10;1.88;;;;;;;6.45;20.94;100735.72;5036795;28;20041;-85
2022/03/11 11:02:59;;;;;;;7.13;2.10;;;;;;;6.04;21.82;100727.59;5023102;28;20164;-84
2022/03/11 11:05:26;;;;;;;4.80;2.08;;;;;;;6.05;21.35;100724.22;5019909;28;20076;-84
2022/03/11 11:07:52;;;;;;;3.30;1.90;;;;;;;6.37;20.57;100726.91;5036834;28;20041;-85
2022/03/11 11:10:20;;;;;;;3.63;1.88;;;;;;;6.73;21.02;100710.75;5024321;28;20083;-84
2022/03/11 11:12:46;;;;;;;4.82;1.80;;;;;;;6.73;21.10;100715.91;5030572;28;20453;-84
2022/03/11 11:15:12;;;;;;;6.65;1.88;;;;;;;6.62;21.01;100713.91;5024392;28;20480;-85
2022/03/11 11:17:38;;;;;;;;;;;;;;;6.70;20.23;100705.50;5019904;28;20052;-84
2022/03/11 11:20:05;;;;;;;4.80;1.80;;;;;;;7.03;20.42;100692.66;5029732;28;20393;-84
2022/03/11 11:22:31;;;;;;;3.88;1.35;;;;;;;7.68;20.82;100677.09;5028161;28;20045;-85
2022/03/11 11:24:56;;;;;;;4.85;2.15;;;;;;;7.29;20.61;100689.06;5016179;28;20438;-83
2022/03/11 11:27:22;;;;;;;4.30;1.77;;;;;;;7.26;20.18;100685.53;5001471;28;20549;-84
2022/03/11 11:29:48;;;;;;;;;;;;;;;7.46;20.17;100686.88;5013808;28;20013;-85
2022/03/11 11:32:14;;;;;;;8.00;1.80;;;;;;;7.58;20.50;100673.41;5051573;28;19917;-86
2022/03/11 11:34:40;;;;;;;2.60;1.50;;;;;;;8.04;19.40;100669.31;5013317;28;20393;-85
2022/03/11 11:37:07;;;;;;;5.32;1.55;;;;;;;8.06;19.39;100676.28;5035978;28;20038;-87
2022/03/11 11:39:37;;;;;;;3.70;1.80;;;;;;;7.78;19.81;100664.41;5030040;28;20048;-85
2022/03/11 11:42:07;;;;;;;3.85;1.65;;;;;;;7.63;19.57;100661.47;5033574;28;20471;-84
2022/03/11 11:44:37;;;;;;;5.63;1.80;;;;;;;8.38;19.72;100663.19;5041658;28;20039;-85
2022/03/11 11:47:15;;;;;;;6.47;2.15;;;;;;;9.09;18.99;100663.72;5014244;28;20047;-85